sensor_id;sensor_type;location;lat;lon;timestamp;temperature;humidity
3262;DHT22;1643;47.746;9.000;2023-03-17T00:00:13;6.40;91.30
3262;DHT22;1643;47.746;9.000;2023-03-17T00:02:41;6.40;91.20
3262;DHT22;1643;47.746;9.000;2023-03-17T00:05:33;6.40;91.00
3262;DHT22;1643;47.746;9.000;2023-03-17T00:08:09;6.40;90.80
3262;DHT22;1643;47.746;9.000;2023-03-17T00:10:36;6.40;90.60
3262;DHT22;1643;47.746;9.000;2023-03-17T00:13:02;6.40;90.50
3262;DHT22;1643;47.746;9.000;2023-03-17T00:15:28;6.40;90.50
3262;DHT22;1643;47.746;9.000;2023-03-17T00:17:55;6.40;90.50
3262;DHT22;1643;47.746;9.000;2023-03-17T00:20:25;6.40;90.50
3262;DHT22;1643;47.746;9.000;2023-03-17T00:22:53;6.40;90.60
3262;DHT22;1643;47.746;9.000;2023-03-17T00:25:25;6.30;90.70
3262;DHT22;1643;47.746;9.000;2023-03-17T00:27:51;6.30;90.90
3262;DHT22;1643;47.746;9.000;2023-03-17T00:30:18;6.30;91.10
3262;DHT22;1643;47.746;9.000;2023-03-17T00:32:44;6.30;91.40
3262;DHT22;1643;47.746;9.000;2023-03-17T00:35:16;6.20;91.50
3262;DHT22;1643;47.746;9.000;2023-03-17T00:37:42;6.20;91.80
3262;DHT22;1643;47.746;9.000;2023-03-17T00:40:14;6.20;91.90
3262;DHT22;1643;47.746;9.000;2023-03-17T00:42:40;6.20;92.00
3262;DHT22;1643;47.746;9.000;2023-03-17T00:45:06;6.20;91.90
3262;DHT22;1643;47.746;9.000;2023-03-17T00:47:32;6.20;91.80
3262;DHT22;1643;47.746;9.000;2023-03-17T00:49:58;6.20;92.00
3262;DHT22;1643;47.746;9.000;2023-03-17T00:52:24;6.20;91.60
3262;DHT22;1643;47.746;9.000;2023-03-17T00:54:51;6.20;91.70
3262;DHT22;1643;47.746;9.000;2023-03-17T00:57:17;6.10;91.80
3262;DHT22;1643;47.746;9.000;2023-03-17T00:59:42;6.10;92.00
3262;DHT22;1643;47.746;9.000;2023-03-17T01:02:10;6.10;92.20
3262;DHT22;1643;47.746;9.000;2023-03-17T01:04:37;6.00;92.30
3262;DHT22;1643;47.746;9.000;2023-03-17T01:07:04;6.00;92.40
3262;DHT22;1643;47.746;9.000;2023-03-17T01:09:29;5.90;92.50
3262;DHT22;1643;47.746;9.000;2023-03-17T01:11:55;6.00;92.80
3262;DHT22;1643;47.746;9.000;2023-03-17T01:14:22;5.90;92.90
3262;DHT22;1643;47.746;9.000;2023-03-17T01:16:47;6.40;93.20
3262;DHT22;1643;47.746;9.000;2023-03-17T01:19:13;5.90;93.10
3262;DHT22;1643;47.746;9.000;2023-03-17T01:21:39;5.90;93.10
3262;DHT22;1643;47.746;9.000;2023-03-17T01:24:06;5.90;93.20
3262;DHT22;1643;47.746;9.000;2023-03-17T01:26:32;5.90;93.30
3262;DHT22;1643;47.746;9.000;2023-03-17T01:28:58;5.80;93.30
3262;DHT22;1643;47.746;9.000;2023-03-17T01:31:24;5.80;93.30
3262;DHT22;1643;47.746;9.000;2023-03-17T01:33:50;5.70;93.30
3262;DHT22;1643;47.746;9.000;2023-03-17T01:36:17;5.70;93.30
3262;DHT22;1643;47.746;9.000;2023-03-17T01:38:43;5.70;93.40
3262;DHT22;1643;47.746;9.000;2023-03-17T01:41:12;5.70;93.40
3262;DHT22;1643;47.746;9.000;2023-03-17T01:43:38;5.70;93.50
3262;DHT22;1643;47.746;9.000;2023-03-17T01:46:29;5.70;93.50
3262;DHT22;1643;47.746;9.000;2023-03-17T01:54:16;5.70;93.60
3262;DHT22;1643;47.746;9.000;2023-03-17T01:56:44;5.70;93.70
3262;DHT22;1643;47.746;9.000;2023-03-17T01:59:20;5.80;93.70
3262;DHT22;1643;47.746;9.000;2023-03-17T02:01:49;5.70;93.70
3262;DHT22;1643;47.746;9.000;2023-03-17T02:04:18;5.70;93.80
3262;DHT22;1643;47.746;9.000;2023-03-17T02:06:47;5.70;94.00
3262;DHT22;1643;47.746;9.000;2023-03-17T02:09:14;5.70;94.10
3262;DHT22;1643;47.746;9.000;2023-03-17T02:11:40;5.70;94.20
3262;DHT22;1643;47.746;9.000;2023-03-17T02:14:06;5.60;94.30
3262;DHT22;1643;47.746;9.000;2023-03-17T02:16:33;5.60;94.40
3262;DHT22;1643;47.746;9.000;2023-03-17T02:18:58;5.60;94.40
3262;DHT22;1643;47.746;9.000;2023-03-17T02:21:56;5.60;94.50
3262;DHT22;1643;47.746;9.000;2023-03-17T02:25:04;5.60;94.50
3262;DHT22;1643;47.746;9.000;2023-03-17T02:27:28;5.50;94.60
3262;DHT22;1643;47.746;9.000;2023-03-17T02:29:55;5.50;94.70
3262;DHT22;1643;47.746;9.000;2023-03-17T02:32:23;5.50;94.70
3262;DHT22;1643;47.746;9.000;2023-03-17T02:34:48;5.50;94.80
3262;DHT22;1643;47.746;9.000;2023-03-17T02:37:16;5.60;94.90
3262;DHT22;1643;47.746;9.000;2023-03-17T02:39:42;5.50;94.80
3262;DHT22;1643;47.746;9.000;2023-03-17T02:42:08;5.50;94.90
3262;DHT22;1643;47.746;9.000;2023-03-17T02:44:34;5.50;95.00
3262;DHT22;1643;47.746;9.000;2023-03-17T02:47:00;5.50;95.20
3262;DHT22;1643;47.746;9.000;2023-03-17T02:49:26;5.50;95.00
3262;DHT22;1643;47.746;9.000;2023-03-17T02:51:52;5.60;95.10
3262;DHT22;1643;47.746;9.000;2023-03-17T02:54:18;5.60;95.10
3262;DHT22;1643;47.746;9.000;2023-03-17T02:56:44;5.50;95.10
3262;DHT22;1643;47.746;9.000;2023-03-17T02:59:09;5.50;95.20
3262;DHT22;1643;47.746;9.000;2023-03-17T03:01:35;5.50;95.10
3262;DHT22;1643;47.746;9.000;2023-03-17T03:04:01;5.40;95.20
3262;DHT22;1643;47.746;9.000;2023-03-17T03:06:28;5.40;95.20
3262;DHT22;1643;47.746;9.000;2023-03-17T03:08:53;5.50;95.20
3262;DHT22;1643;47.746;9.000;2023-03-17T03:11:19;5.50;95.20
3262;DHT22;1643;47.746;9.000;2023-03-17T03:13:45;5.40;95.20
3262;DHT22;1643;47.746;9.000;2023-03-17T03:16:11;5.30;95.20
3262;DHT22;1643;47.746;9.000;2023-03-17T03:18:37;5.30;95.40
3262;DHT22;1643;47.746;9.000;2023-03-17T03:21:03;5.20;95.40
3262;DHT22;1643;47.746;9.000;2023-03-17T03:23:29;5.20;95.60
3262;DHT22;1643;47.746;9.000;2023-03-17T03:25:55;5.20;95.70
3262;DHT22;1643;47.746;9.000;2023-03-17T03:28:21;5.20;95.70
3262;DHT22;1643;47.746;9.000;2023-03-17T03:30:47;5.20;95.70
3262;DHT22;1643;47.746;9.000;2023-03-17T03:33:13;5.20;95.80
3262;DHT22;1643;47.746;9.000;2023-03-17T03:35:39;5.20;95.80
3262;DHT22;1643;47.746;9.000;2023-03-17T03:38:06;5.30;95.90
3262;DHT22;1643;47.746;9.000;2023-03-17T03:40:32;5.30;95.90
3262;DHT22;1643;47.746;9.000;2023-03-17T03:42:58;5.20;95.90
3262;DHT22;1643;47.746;9.000;2023-03-17T03:45:23;5.10;96.00
3262;DHT22;1643;47.746;9.000;2023-03-17T03:47:49;5.10;96.10
3262;DHT22;1643;47.746;9.000;2023-03-17T03:50:15;5.10;96.10
3262;DHT22;1643;47.746;9.000;2023-03-17T03:52:41;5.10;96.10
3262;DHT22;1643;47.746;9.000;2023-03-17T03:55:07;5.10;96.20
3262;DHT22;1643;47.746;9.000;2023-03-17T03:57:33;5.10;96.40
3262;DHT22;1643;47.746;9.000;2023-03-17T04:00:00;5.10;96.40
3262;DHT22;1643;47.746;9.000;2023-03-17T04:02:26;5.10;96.80
3262;DHT22;1643;47.746;9.000;2023-03-17T04:04:52;5.10;96.50
3262;DHT22;1643;47.746;9.000;2023-03-17T04:07:18;5.10;96.50
3262;DHT22;1643;47.746;9.000;2023-03-17T04:09:46;5.10;96.60
3262;DHT22;1643;47.746;9.000;2023-03-17T04:12:14;5.10;96.50
3262;DHT22;1643;47.746;9.000;2023-03-17T04:14:40;5.10;96.60
3262;DHT22;1643;47.746;9.000;2023-03-17T04:17:06;5.10;96.70
3262;DHT22;1643;47.746;9.000;2023-03-17T04:19:33;5.10;96.70
3262;DHT22;1643;47.746;9.000;2023-03-17T04:21:59;5.10;96.70
3262;DHT22;1643;47.746;9.000;2023-03-17T04:24:25;5.00;96.80
3262;DHT22;1643;47.746;9.000;2023-03-17T04:26:52;5.00;96.90
3262;DHT22;1643;47.746;9.000;2023-03-17T04:29:18;4.90;97.00
3262;DHT22;1643;47.746;9.000;2023-03-17T04:31:44;4.90;97.10
3262;DHT22;1643;47.746;9.000;2023-03-17T04:34:14;4.90;97.20
3262;DHT22;1643;47.746;9.000;2023-03-17T04:36:41;4.90;97.20
3262;DHT22;1643;47.746;9.000;2023-03-17T04:39:07;5.00;97.20
3262;DHT22;1643;47.746;9.000;2023-03-17T04:41:33;5.00;97.20
3262;DHT22;1643;47.746;9.000;2023-03-17T04:43:59;5.00;97.20
3262;DHT22;1643;47.746;9.000;2023-03-17T04:46:24;5.00;97.20
3262;DHT22;1643;47.746;9.000;2023-03-17T04:48:50;4.90;97.20
3262;DHT22;1643;47.746;9.000;2023-03-17T04:51:16;4.90;97.20
3262;DHT22;1643;47.746;9.000;2023-03-17T04:53:41;4.90;97.30
3262;DHT22;1643;47.746;9.000;2023-03-17T04:56:07;4.90;97.30
3262;DHT22;1643;47.746;9.000;2023-03-17T04:58:33;4.90;97.40
3262;DHT22;1643;47.746;9.000;2023-03-17T05:00:58;4.80;97.40
3262;DHT22;1643;47.746;9.000;2023-03-17T05:03:25;4.80;97.50
3262;DHT22;1643;47.746;9.000;2023-03-17T05:05:52;4.80;97.50
3262;DHT22;1643;47.746;9.000;2023-03-17T05:08:18;4.80;97.60
3262;DHT22;1643;47.746;9.000;2023-03-17T05:10:44;4.70;97.60
3262;DHT22;1643;47.746;9.000;2023-03-17T05:13:10;4.70;97.70
3262;DHT22;1643;47.746;9.000;2023-03-17T05:15:35;4.70;97.80
3262;DHT22;1643;47.746;9.000;2023-03-17T05:18:01;4.70;97.90
3262;DHT22;1643;47.746;9.000;2023-03-17T05:20:27;4.70;98.00
3262;DHT22;1643;47.746;9.000;2023-03-17T05:22:53;4.60;98.00
3262;DHT22;1643;47.746;9.000;2023-03-17T05:25:18;4.60;98.00
3262;DHT22;1643;47.746;9.000;2023-03-17T05:27:44;4.60;98.10
3262;DHT22;1643;47.746;9.000;2023-03-17T05:30:10;4.60;98.20
3262;DHT22;1643;47.746;9.000;2023-03-17T05:32:36;4.60;98.10
3262;DHT22;1643;47.746;9.000;2023-03-17T05:35:01;4.60;98.20
3262;DHT22;1643;47.746;9.000;2023-03-17T05:37:28;4.60;98.10
3262;DHT22;1643;47.746;9.000;2023-03-17T05:39:53;4.60;98.10
3262;DHT22;1643;47.746;9.000;2023-03-17T05:42:19;4.70;98.20
3262;DHT22;1643;47.746;9.000;2023-03-17T05:44:45;4.60;98.20
3262;DHT22;1643;47.746;9.000;2023-03-17T05:47:10;4.60;98.30
3262;DHT22;1643;47.746;9.000;2023-03-17T05:49:36;4.60;98.30
3262;DHT22;1643;47.746;9.000;2023-03-17T05:52:02;4.60;98.60
3262;DHT22;1643;47.746;9.000;2023-03-17T05:54:27;4.60;98.40
3262;DHT22;1643;47.746;9.000;2023-03-17T05:56:53;4.60;98.40
3262;DHT22;1643;47.746;9.000;2023-03-17T05:59:19;4.60;98.40
3262;DHT22;1643;47.746;9.000;2023-03-17T06:01:44;4.60;98.40
3262;DHT22;1643;47.746;9.000;2023-03-17T06:04:10;4.60;98.50
3262;DHT22;1643;47.746;9.000;2023-03-17T06:06:36;4.70;98.50
3262;DHT22;1643;47.746;9.000;2023-03-17T06:09:01;4.70;98.50
3262;DHT22;1643;47.746;9.000;2023-03-17T06:11:27;4.60;98.60
3262;DHT22;1643;47.746;9.000;2023-03-17T06:13:53;4.60;98.60
3262;DHT22;1643;47.746;9.000;2023-03-17T06:16:18;4.60;98.80
3262;DHT22;1643;47.746;9.000;2023-03-17T06:18:45;4.60;98.90
3262;DHT22;1643;47.746;9.000;2023-03-17T06:21:11;4.60;99.00
3262;DHT22;1643;47.746;9.000;2023-03-17T06:23:37;4.60;99.10
3262;DHT22;1643;47.746;9.000;2023-03-17T06:26:04;4.60;99.10
3262;DHT22;1643;47.746;9.000;2023-03-17T06:28:30;4.70;99.20
3262;DHT22;1643;47.746;9.000;2023-03-17T06:30:56;4.70;99.20
3262;DHT22;1643;47.746;9.000;2023-03-17T06:33:23;4.70;99.30
3262;DHT22;1643;47.746;9.000;2023-03-17T06:35:48;4.70;99.30
3262;DHT22;1643;47.746;9.000;2023-03-17T06:38:16;4.80;99.40
3262;DHT22;1643;47.746;9.000;2023-03-17T06:40:41;4.80;99.40
3262;DHT22;1643;47.746;9.000;2023-03-17T06:43:07;4.90;99.40
3262;DHT22;1643;47.746;9.000;2023-03-17T06:45:33;5.00;99.50
3262;DHT22;1643;47.746;9.000;2023-03-17T06:47:59;5.10;99.60
3262;DHT22;1643;47.746;9.000;2023-03-17T06:50:26;5.20;99.50
3262;DHT22;1643;47.746;9.000;2023-03-17T06:52:52;5.20;99.60
3262;DHT22;1643;47.746;9.000;2023-03-17T06:55:17;5.30;99.70
3262;DHT22;1643;47.746;9.000;2023-03-17T06:57:43;5.30;99.70
3262;DHT22;1643;47.746;9.000;2023-03-17T07:00:09;5.40;99.80
3262;DHT22;1643;47.746;9.000;2023-03-17T07:02:37;5.40;99.80
3262;DHT22;1643;47.746;9.000;2023-03-17T07:05:02;5.60;99.80
3262;DHT22;1643;47.746;9.000;2023-03-17T07:07:29;5.60;99.80
3262;DHT22;1643;47.746;9.000;2023-03-17T07:09:54;5.70;99.90
3262;DHT22;1643;47.746;9.000;2023-03-17T07:12:20;5.80;99.80
3262;DHT22;1643;47.746;9.000;2023-03-17T07:14:46;6.00;99.70
3262;DHT22;1643;47.746;9.000;2023-03-17T07:17:13;6.10;99.70
3262;DHT22;1643;47.746;9.000;2023-03-17T07:19:39;6.20;99.70
3262;DHT22;1643;47.746;9.000;2023-03-17T07:22:06;6.20;99.60
3262;DHT22;1643;47.746;9.000;2023-03-17T07:24:32;6.20;99.50
3262;DHT22;1643;47.746;9.000;2023-03-17T07:26:58;6.30;99.50
3262;DHT22;1643;47.746;9.000;2023-03-17T07:29:23;6.30;99.40
3262;DHT22;1643;47.746;9.000;2023-03-17T07:31:49;6.40;99.30
3262;DHT22;1643;47.746;9.000;2023-03-17T07:34:15;6.50;99.30
3262;DHT22;1643;47.746;9.000;2023-03-17T07:36:41;6.60;99.20
3262;DHT22;1643;47.746;9.000;2023-03-17T07:39:07;6.60;99.20
3262;DHT22;1643;47.746;9.000;2023-03-17T07:41:33;6.70;99.10
3262;DHT22;1643;47.746;9.000;2023-03-17T07:43:59;6.80;99.10
3262;DHT22;1643;47.746;9.000;2023-03-17T07:46:25;6.90;99.10
3262;DHT22;1643;47.746;9.000;2023-03-17T07:48:51;7.00;99.20
3262;DHT22;1643;47.746;9.000;2023-03-17T07:51:19;7.10;99.20
3262;DHT22;1643;47.746;9.000;2023-03-17T07:53:47;7.20;99.30
3262;DHT22;1643;47.746;9.000;2023-03-17T07:56:14;7.20;99.30
3262;DHT22;1643;47.746;9.000;2023-03-17T07:58:40;7.20;99.20
3262;DHT22;1643;47.746;9.000;2023-03-17T08:01:06;7.30;99.10
3262;DHT22;1643;47.746;9.000;2023-03-17T08:03:33;7.30;99.10
3262;DHT22;1643;47.746;9.000;2023-03-17T08:05:58;7.20;99.30
3262;DHT22;1643;47.746;9.000;2023-03-17T08:08:26;7.20;99.40
3262;DHT22;1643;47.746;9.000;2023-03-17T08:11:03;7.10;99.50
3262;DHT22;1643;47.746;9.000;2023-03-17T08:13:30;7.00;99.60
3262;DHT22;1643;47.746;9.000;2023-03-17T08:15:56;7.10;99.60
3262;DHT22;1643;47.746;9.000;2023-03-17T08:18:22;7.20;99.60
3262;DHT22;1643;47.746;9.000;2023-03-17T08:20:48;7.40;99.50
3262;DHT22;1643;47.746;9.000;2023-03-17T08:23:14;7.50;99.40
3262;DHT22;1643;47.746;9.000;2023-03-17T08:25:39;7.60;99.30
3262;DHT22;1643;47.746;9.000;2023-03-17T08:28:05;7.60;99.00
3262;DHT22;1643;47.746;9.000;2023-03-17T08:30:31;7.60;99.00
3262;DHT22;1643;47.746;9.000;2023-03-17T08:32:56;7.60;99.00
3262;DHT22;1643;47.746;9.000;2023-03-17T08:35:22;7.70;99.00
3262;DHT22;1643;47.746;9.000;2023-03-17T08:37:49;7.80;99.00
3262;DHT22;1643;47.746;9.000;2023-03-17T08:40:17;7.90;98.90
3262;DHT22;1643;47.746;9.000;2023-03-17T08:42:44;8.10;98.90
3262;DHT22;1643;47.746;9.000;2023-03-17T08:45:11;8.20;98.70
3262;DHT22;1643;47.746;9.000;2023-03-17T08:47:37;8.20;98.50
3262;DHT22;1643;47.746;9.000;2023-03-17T08:50:10;8.20;98.60
3262;DHT22;1643;47.746;9.000;2023-03-17T08:52:38;8.20;98.50
3262;DHT22;1643;47.746;9.000;2023-03-17T08:55:06;8.20;98.60
3262;DHT22;1643;47.746;9.000;2023-03-17T08:57:33;8.10;98.70
3262;DHT22;1643;47.746;9.000;2023-03-17T08:59:59;8.20;98.80
3262;DHT22;1643;47.746;9.000;2023-03-17T09:02:25;8.20;98.60
3262;DHT22;1643;47.746;9.000;2023-03-17T09:04:51;8.20;98.60
3262;DHT22;1643;47.746;9.000;2023-03-17T09:07:17;8.20;98.60
3262;DHT22;1643;47.746;9.000;2023-03-17T09:09:42;8.30;98.50
3262;DHT22;1643;47.746;9.000;2023-03-17T09:12:09;8.40;98.50
3262;DHT22;1643;47.746;9.000;2023-03-17T09:14:35;8.60;98.40
3262;DHT22;1643;47.746;9.000;2023-03-17T09:17:01;8.70;98.30
3262;DHT22;1643;47.746;9.000;2023-03-17T09:19:26;8.80;98.20
3262;DHT22;1643;47.746;9.000;2023-03-17T09:21:52;9.00;98.00
3262;DHT22;1643;47.746;9.000;2023-03-17T09:24:18;8.90;98.00
3262;DHT22;1643;47.746;9.000;2023-03-17T09:26:44;8.90;98.10
3262;DHT22;1643;47.746;9.000;2023-03-17T09:29:10;9.00;98.00
3262;DHT22;1643;47.746;9.000;2023-03-17T09:31:36;9.10;98.00
3262;DHT22;1643;47.746;9.000;2023-03-17T09:34:03;9.20;98.00
3262;DHT22;1643;47.746;9.000;2023-03-17T09:36:30;9.30;97.90
3262;DHT22;1643;47.746;9.000;2023-03-17T09:38:56;9.40;97.90
3262;DHT22;1643;47.746;9.000;2023-03-17T09:44:11;9.60;97.60
3262;DHT22;1643;47.746;9.000;2023-03-17T09:49:50;9.70;96.90
3262;DHT22;1643;47.746;9.000;2023-03-17T09:52:21;9.80;96.70
3262;DHT22;1643;47.746;9.000;2023-03-17T09:54:48;9.80;96.70
3262;DHT22;1643;47.746;9.000;2023-03-17T09:57:19;9.90;96.80
3262;DHT22;1643;47.746;9.000;2023-03-17T09:59:50;10.00;96.20
3262;DHT22;1643;47.746;9.000;2023-03-17T10:02:25;10.20;96.00
3262;DHT22;1643;47.746;9.000;2023-03-17T10:04:51;10.20;95.90
3262;DHT22;1643;47.746;9.000;2023-03-17T10:07:32;10.20;95.80
3262;DHT22;1643;47.746;9.000;2023-03-17T10:10:04;10.20;95.80
3262;DHT22;1643;47.746;9.000;2023-03-17T10:12:49;10.40;96.00
3262;DHT22;1643;47.746;9.000;2023-03-17T10:15:26;10.60;95.90
3262;DHT22;1643;47.746;9.000;2023-03-17T10:17:54;10.80;95.70
3262;DHT22;1643;47.746;9.000;2023-03-17T10:20:30;10.90;95.60
3262;DHT22;1643;47.746;9.000;2023-03-17T10:23:10;11.00;95.40
3262;DHT22;1643;47.746;9.000;2023-03-17T10:25:36;11.00;95.00
3262;DHT22;1643;47.746;9.000;2023-03-17T10:30:33;11.00;94.80
3262;DHT22;1643;47.746;9.000;2023-03-17T10:33:01;11.20;94.80
3262;DHT22;1643;47.746;9.000;2023-03-17T10:35:29;11.30;94.70
3262;DHT22;1643;47.746;9.000;2023-03-17T10:38:00;11.40;94.40
3262;DHT22;1643;47.746;9.000;2023-03-17T10:40:28;11.50;94.10
3262;DHT22;1643;47.746;9.000;2023-03-17T10:43:04;11.60;94.00
3262;DHT22;1643;47.746;9.000;2023-03-17T10:45:34;11.50;93.90
3262;DHT22;1643;47.746;9.000;2023-03-17T10:48:01;11.60;93.70
3262;DHT22;1643;47.746;9.000;2023-03-17T10:50:33;11.70;93.10
3262;DHT22;1643;47.746;9.000;2023-03-17T10:55:32;11.80;93.50
3262;DHT22;1643;47.746;9.000;2023-03-17T10:58:16;11.80;93.20
3262;DHT22;1643;47.746;9.000;2023-03-17T11:01:02;11.80;93.10
3262;DHT22;1643;47.746;9.000;2023-03-17T11:03:32;11.90;93.10
3262;DHT22;1643;47.746;9.000;2023-03-17T11:06:02;11.90;92.80
3262;DHT22;1643;47.746;9.000;2023-03-17T11:08:40;11.90;93.00
3262;DHT22;1643;47.746;9.000;2023-03-17T11:13:46;12.00;92.70
3262;DHT22;1643;47.746;9.000;2023-03-17T11:16:22;12.10;92.70
3262;DHT22;1643;47.746;9.000;2023-03-17T11:18:51;12.20;92.40
3262;DHT22;1643;47.746;9.000;2023-03-17T11:24:07;12.60;92.30
3262;DHT22;1643;47.746;9.000;2023-03-17T11:26:55;12.80;92.20
3262;DHT22;1643;47.746;9.000;2023-03-17T11:40:05;12.90;91.60
3262;DHT22;1643;47.746;9.000;2023-03-17T11:45:49;12.80;91.70
3262;DHT22;1643;47.746;9.000;2023-03-17T11:56:35;13.00;91.20
3262;DHT22;1643;47.746;9.000;2023-03-17T11:59:05;13.00;91.10
3262;DHT22;1643;47.746;9.000;2023-03-17T12:01:46;13.10;91.00
3262;DHT22;1643;47.746;9.000;2023-03-17T12:07:03;13.60;91.00
3262;DHT22;1643;47.746;9.000;2023-03-17T12:09:37;13.70;90.90
3262;DHT22;1643;47.746;9.000;2023-03-17T12:12:06;13.80;90.90
3262;DHT22;1643;47.746;9.000;2023-03-17T12:14:41;13.90;90.80
3262;DHT22;1643;47.746;9.000;2023-03-17T12:21:05;14.30;90.60
3262;DHT22;1643;47.746;9.000;2023-03-17T12:23:47;14.30;90.40
3262;DHT22;1643;47.746;9.000;2023-03-17T12:28:55;14.20;89.80
3262;DHT22;1643;47.746;9.000;2023-03-17T12:31:34;14.20;90.10
3262;DHT22;1643;47.746;9.000;2023-03-17T12:37:04;14.50;89.80
3262;DHT22;1643;47.746;9.000;2023-03-17T12:39:36;14.50;89.50
3262;DHT22;1643;47.746;9.000;2023-03-17T12:44:56;14.80;88.80
3262;DHT22;1643;47.746;9.000;2023-03-17T12:53:20;15.30;87.10
3262;DHT22;1643;47.746;9.000;2023-03-17T12:55:50;15.60;87.30
3262;DHT22;1643;47.746;9.000;2023-03-17T12:58:28;15.90;88.00
3262;DHT22;1643;47.746;9.000;2023-03-17T13:01:15;16.10;86.20
3262;DHT22;1643;47.746;9.000;2023-03-17T13:04:20;16.10;86.40
3262;DHT22;1643;47.746;9.000;2023-03-17T13:06:46;16.30;86.00
3262;DHT22;1643;47.746;9.000;2023-03-17T13:11:57;15.80;85.60
3262;DHT22;1643;47.746;9.000;2023-03-17T13:14:24;15.70;85.70
3262;DHT22;1643;47.746;9.000;2023-03-17T13:16:50;15.90;85.10
3262;DHT22;1643;47.746;9.000;2023-03-17T13:19:22;16.10;84.50
3262;DHT22;1643;47.746;9.000;2023-03-17T13:24:44;16.40;84.10
3262;DHT22;1643;47.746;9.000;2023-03-17T13:32:52;16.70;83.30
3262;DHT22;1643;47.746;9.000;2023-03-17T13:35:20;16.60;83.40
3262;DHT22;1643;47.746;9.000;2023-03-17T13:37:58;16.40;83.70
3262;DHT22;1643;47.746;9.000;2023-03-17T13:43:13;16.40;83.60
3262;DHT22;1643;47.746;9.000;2023-03-17T13:45:44;16.20;83.50
3262;DHT22;1643;47.746;9.000;2023-03-17T13:53:36;16.00;85.00
3262;DHT22;1643;47.746;9.000;2023-03-17T13:58:34;16.00;84.30
3262;DHT22;1643;47.746;9.000;2023-03-17T14:01:18;16.10;84.30
3262;DHT22;1643;47.746;9.000;2023-03-17T14:03:48;15.90;84.20
3262;DHT22;1643;47.746;9.000;2023-03-17T14:06:14;16.00;84.40
3262;DHT22;1643;47.746;9.000;2023-03-17T14:08:47;16.00;84.30
3262;DHT22;1643;47.746;9.000;2023-03-17T14:16:28;16.30;84.40
3262;DHT22;1643;47.746;9.000;2023-03-17T14:19:21;16.30;84.70
3262;DHT22;1643;47.746;9.000;2023-03-17T14:21:48;16.20;84.80
3262;DHT22;1643;47.746;9.000;2023-03-17T14:24:22;16.30;84.90
3262;DHT22;1643;47.746;9.000;2023-03-17T14:26:49;16.30;84.60
3262;DHT22;1643;47.746;9.000;2023-03-17T14:29:17;16.20;84.50
3262;DHT22;1643;47.746;9.000;2023-03-17T14:31:50;16.10;84.40
3262;DHT22;1643;47.746;9.000;2023-03-17T14:34:20;16.10;84.10
3262;DHT22;1643;47.746;9.000;2023-03-17T14:36:47;16.10;84.00
3262;DHT22;1643;47.746;9.000;2023-03-17T14:39:24;16.00;84.10
3262;DHT22;1643;47.746;9.000;2023-03-17T14:42:01;15.90;84.50
3262;DHT22;1643;47.746;9.000;2023-03-17T14:44:38;16.10;84.80
3262;DHT22;1643;47.746;9.000;2023-03-17T14:47:11;16.30;84.70
3262;DHT22;1643;47.746;9.000;2023-03-17T14:49:38;16.40;84.90
3262;DHT22;1643;47.746;9.000;2023-03-17T14:52:04;16.30;85.00
3262;DHT22;1643;47.746;9.000;2023-03-17T14:54:34;16.20;85.10
3262;DHT22;1643;47.746;9.000;2023-03-17T14:57:10;16.20;85.20
3262;DHT22;1643;47.746;9.000;2023-03-17T14:59:42;16.20;85.50
3262;DHT22;1643;47.746;9.000;2023-03-17T15:04:55;16.10;85.80
3262;DHT22;1643;47.746;9.000;2023-03-17T15:07:37;16.00;85.70
3262;DHT22;1643;47.746;9.000;2023-03-17T15:10:11;16.10;86.10
3262;DHT22;1643;47.746;9.000;2023-03-17T15:12:37;16.00;86.20
3262;DHT22;1643;47.746;9.000;2023-03-17T15:15:23;16.00;86.40
3262;DHT22;1643;47.746;9.000;2023-03-17T15:17:53;15.90;86.50
3262;DHT22;1643;47.746;9.000;2023-03-17T15:20:20;16.00;86.60
3262;DHT22;1643;47.746;9.000;2023-03-17T15:25:48;16.10;86.80
3262;DHT22;1643;47.746;9.000;2023-03-17T15:28:20;16.10;87.20
3262;DHT22;1643;47.746;9.000;2023-03-17T15:30:51;16.20;87.40
3262;DHT22;1643;47.746;9.000;2023-03-17T15:33:20;16.30;87.30
3262;DHT22;1643;47.746;9.000;2023-03-17T15:35:47;16.30;87.50
3262;DHT22;1643;47.746;9.000;2023-03-17T15:38:13;16.30;87.90
3262;DHT22;1643;47.746;9.000;2023-03-17T15:40:38;16.50;88.30
3262;DHT22;1643;47.746;9.000;2023-03-17T15:43:04;16.50;88.40
3262;DHT22;1643;47.746;9.000;2023-03-17T15:45:30;16.60;88.70
3262;DHT22;1643;47.746;9.000;2023-03-17T15:47:56;16.60;88.10
3262;DHT22;1643;47.746;9.000;2023-03-17T15:50:27;16.60;87.80
3262;DHT22;1643;47.746;9.000;2023-03-17T15:52:54;16.60;87.50
3262;DHT22;1643;47.746;9.000;2023-03-17T15:55:22;16.40;87.00
3262;DHT22;1643;47.746;9.000;2023-03-17T15:57:49;16.40;86.70
3262;DHT22;1643;47.746;9.000;2023-03-17T16:00:16;16.40;86.70
3262;DHT22;1643;47.746;9.000;2023-03-17T16:02:43;16.40;87.00
3262;DHT22;1643;47.746;9.000;2023-03-17T16:05:18;16.50;87.30
3262;DHT22;1643;47.746;9.000;2023-03-17T16:07:45;16.50;87.50
3262;DHT22;1643;47.746;9.000;2023-03-17T16:10:22;16.60;87.90
3262;DHT22;1643;47.746;9.000;2023-03-17T16:12:48;16.60;87.90
3262;DHT22;1643;47.746;9.000;2023-03-17T16:15:21;16.60;88.00
3262;DHT22;1643;47.746;9.000;2023-03-17T16:17:50;16.80;88.40
3262;DHT22;1643;47.746;9.000;2023-03-17T16:22:45;16.70;88.60
3262;DHT22;1643;47.746;9.000;2023-03-17T16:25:28;16.60;88.80
3262;DHT22;1643;47.746;9.000;2023-03-17T16:27:59;16.50;88.90
3262;DHT22;1643;47.746;9.000;2023-03-17T16:30:28;16.40;89.00
3262;DHT22;1643;47.746;9.000;2023-03-17T16:33:01;16.40;89.40
3262;DHT22;1643;47.746;9.000;2023-03-17T16:35:27;16.40;88.40
3262;DHT22;1643;47.746;9.000;2023-03-17T16:37:54;16.40;88.30
3262;DHT22;1643;47.746;9.000;2023-03-17T16:42:50;16.30;88.50
3262;DHT22;1643;47.746;9.000;2023-03-17T16:45:27;16.20;90.10
3262;DHT22;1643;47.746;9.000;2023-03-17T16:47:54;16.00;91.10
3262;DHT22;1643;47.746;9.000;2023-03-17T16:50:23;15.80;92.40
3262;DHT22;1643;47.746;9.000;2023-03-17T16:52:49;15.50;92.90
3262;DHT22;1643;47.746;9.000;2023-03-17T16:55:15;15.40;93.30
3262;DHT22;1643;47.746;9.000;2023-03-17T16:57:42;15.40;93.50
3262;DHT22;1643;47.746;9.000;2023-03-17T17:00:17;15.10;93.80
3262;DHT22;1643;47.746;9.000;2023-03-17T17:02:44;14.90;94.10
3262;DHT22;1643;47.746;9.000;2023-03-17T17:05:19;14.80;94.30
3262;DHT22;1643;47.746;9.000;2023-03-17T17:07:45;14.80;94.40
3262;DHT22;1643;47.746;9.000;2023-03-17T17:10:14;14.70;94.40
3262;DHT22;1643;47.746;9.000;2023-03-17T17:12:40;14.60;94.40
3262;DHT22;1643;47.746;9.000;2023-03-17T17:15:06;14.60;94.50
3262;DHT22;1643;47.746;9.000;2023-03-17T17:17:33;14.50;94.60
3262;DHT22;1643;47.746;9.000;2023-03-17T17:19:59;14.50;94.70
3262;DHT22;1643;47.746;9.000;2023-03-17T17:22:27;14.50;94.80
3262;DHT22;1643;47.746;9.000;2023-03-17T17:24:52;14.50;94.80
3262;DHT22;1643;47.746;9.000;2023-03-17T17:27:18;14.50;94.80
3262;DHT22;1643;47.746;9.000;2023-03-17T17:29:44;14.40;94.80
3262;DHT22;1643;47.746;9.000;2023-03-17T17:32:10;14.40;94.80
3262;DHT22;1643;47.746;9.000;2023-03-17T17:34:36;14.30;94.80
3262;DHT22;1643;47.746;9.000;2023-03-17T17:37:02;14.20;94.80
3262;DHT22;1643;47.746;9.000;2023-03-17T17:39:28;14.20;94.80
3262;DHT22;1643;47.746;9.000;2023-03-17T17:41:53;14.10;94.80
3262;DHT22;1643;47.746;9.000;2023-03-17T17:44:20;14.10;94.80
3262;DHT22;1643;47.746;9.000;2023-03-17T17:46:45;14.10;94.80
3262;DHT22;1643;47.746;9.000;2023-03-17T17:49:11;14.10;94.80
3262;DHT22;1643;47.746;9.000;2023-03-17T17:51:37;14.00;94.70
3262;DHT22;1643;47.746;9.000;2023-03-17T17:54:03;14.00;94.90
3262;DHT22;1643;47.746;9.000;2023-03-17T17:56:28;13.90;95.00
3262;DHT22;1643;47.746;9.000;2023-03-17T17:58:57;13.90;95.10
3262;DHT22;1643;47.746;9.000;2023-03-17T18:01:23;13.80;95.20